Weather observations for the past three days for
Montauk, Montauk Airport
Imperial (Metric)
Date Time (edt) Wind (mph) Vis. (mi.) Weather Sky Cond. Temperature (ºF) Relative Humidity Wind Chill (°F) Heat Index (°F) Pressure Precipitation (in)
Air Dwpt 6 hour altimeter (in) sea level (mb) 1 hr 3 hr 6 hr
Max. Min.
07 02:54 W 3 0.00 NULL NULL 54 53.1 97% 29.74 1006.9 0.02
07 01:54 W 5 0.00 NULL NULL 54 52 55.9 53.1 93% 29.74 1007.2
07 00:54 SW 5 0.00 NULL NULL 54 52 93% 29.77 1008.0
06 23:54 SW 7 0.00 NULL NULL 55 53.1 93% 29.76 1007.8
06 22:54 SW 8 G 22 0.00 NULL NULL 53.1 52 96% 29.76 1007.9
06 21:54 SW 10 G 21 0.00 NULL NULL 53.1 52 96% 29.79 1008.6
06 20:54 SW 10 G 23 0.00 NULL NULL 54 52 93% 29.8 1008.9
06 19:54 S 10 G 23 0.00 NULL NULL 55 53.1 57 53.1 93% 29.78 1008.5 0.08
06 18:54 S 12 G 18 0.00 NULL NULL 53.1 52 96% 29.78 1008.5 0.01
06 17:54 S 10 G 25 0.00 NULL NULL 54 53.1 97% 29.79 1008.6 0.06
06 16:54 S 12 G 23 0.00 NULL NULL 55 51.1 87% 29.8 1008.9 0.01
06 15:54 S 12 G 22 0.00 NULL NULL 55 52 90% 29.8 1009.2 0.01
06 14:54 S 12 G 28 0.00 NULL NULL 55 51.1 87% 29.83 1010.1
06 13:54 S 10 G 24 0.00 NULL NULL 57 51.1 59 55 81% 29.85 1010.8
06 12:54 S 13 G 28 0.00 NULL NULL 57 51.1 81% 29.87 1011.5
06 11:54 S 13 G 29 0.00 NULL NULL 57 51.1 81% 29.89 1012.0
06 10:54 S 14 G 30 0.00 NULL NULL 57.9 52 81% 29.89 1012.2
06 09:54 S 14 G 30 0.00 NULL NULL 57.9 52 81% 29.89 1012.1
06 08:54 S 14 G 28 0.00 NULL NULL 57 51.1 81% 29.9 1012.5
06 07:54 S 12 G 25 0.00 NULL NULL 55 51.1 55.9 53.1 87% 29.9 1012.4
06 06:54 S 10 G 21 0.00 NULL NULL 53.1 51.1 93% 29.9 1012.6
06 05:54 S 12 G 23 0.00 NULL NULL 53.1 51.1 93% 29.9 1012.3
06 04:54 S 9 G 24 0.00 NULL NULL 54 51.1 90% 29.91 1012.8
06 03:54 S 13 G 24 0.00 NULL NULL 55 52 90% 29.91 1012.9
06 02:54 SW 10 G 25 0.00 NULL NULL 55 52 90% 29.91 1012.8
06 01:54 S 13 G 26 0.00 NULL NULL 55 52 55.9 54 90% 29.91 1012.7
06 00:54 S 13 G 29 0.00 NULL NULL 55 51.1 87% 29.92 1013.0
05 23:54 S 13 G 29 0.00 NULL NULL 55 51.1 87% 29.92 1013.1
05 22:54 S 13 G 28 0.00 NULL NULL 55 51.1 87% 29.92 1013.0
05 21:54 S 12 G 28 0.00 NULL NULL 55.9 50 81% 29.91 1012.8
05 20:54 SW 12 G 31 0.00 NULL NULL 55 48.9 80% 29.9 1012.4
05 19:54 S 14 G 32 0.00 NULL NULL 55.9 48.9 57.9 55.9 77% 29.87 1011.4
05 18:54 S 14 G 32 0.00 NULL NULL 55.9 48.9 77% 29.86 1011.0
05 17:54 S 16 G 33 0.00 NULL NULL 57 48.9 74% 29.85 1010.8
05 16:54 S 15 G 33 0.00 NULL NULL 55.9 48.9 77% 29.84 1010.5
05 15:54 S 14 G 30 0.00 NULL NULL 57 48.9 74% 29.85 1010.9
05 14:54 S 13 G 33 0.00 NULL NULL 57.9 50 75% 29.87 1011.4
05 13:54 S 12 G 25 0.00 NULL NULL 57.9 50 57.9 55 75% 29.88 1011.9
05 12:54 S 10 G 25 0.00 NULL NULL 57.9 50 75% 29.89 1012.2
05 11:54 SW 10 G 22 0.00 NULL NULL 57.9 50 75% 29.91 1012.8
05 10:54 S 13 G 26 0.00 NULL NULL 57 50 78% 29.91 1012.9
05 09:54 SW 13 G 31 0.00 NULL NULL 55.9 50 81% 29.9 1012.5
05 08:54 S 9 0.00 NULL NULL 57 50 78% 29.91 1012.7
05 07:54 SW 9 G 21 0.00 NULL NULL 55 50 55 51.1 83% 29.9 1012.5
05 06:54 S 9 0.00 NULL NULL 52 48.9 89% 29.89 1012.2
05 05:54 SW 8 0.00 NULL NULL 51.1 48 89% 29.88 1011.7
05 04:54 S 8 0.00 NULL NULL 51.1 48 89% 29.87 1011.5
05 03:54 S 9 0.00 NULL NULL 52 48 86% 29.88 1011.8
05 02:54 SW 9 0.00 NULL NULL 52 48 86% 29.88 1011.8
05 01:54 SW 9 0.00 NULL NULL 52 48 52 51.1 86% 29.9 1012.4
05 00:54 SW 8 0.00 NULL NULL 51.1 48 89% 29.9 1012.5
04 23:54 S 8 0.00 NULL NULL 51.1 46.9 86% 29.91 1012.8
04 22:54 S 7 0.00 NULL NULL 51.1 46.9 86% 29.92 1013.0
04 21:54 S 9 G 21 0.00 NULL NULL 51.1 46.9 86% 29.91 1012.9
04 20:54 SW 9 G 22 0.00 NULL NULL 51.1 46.9 86% 29.9 1012.4
04 19:54 S 12 G 24 0.00 NULL NULL 52 46 61 52 80% 29.87 1011.5
04 18:54 S 10 G 28 0.00 NULL NULL 53.1 45 74% 29.87 1011.3
04 17:54 S 12 G 29 0.00 NULL NULL 55 45 69% 29.87 1011.4
04 16:54 SW 12 G 30 0.00 NULL NULL 57 44.1 62% 29.87 1011.5
04 15:54 SW 13 G 30 0.00 NULL NULL 59 43 56% 29.87 1011.6
04 14:54 SW 12 G 25 0.00 NULL NULL 59 44.1 58% 29.88 1011.9
04 13:54 SW 12 G 25 0.00 NULL NULL 59 44.1 61 54 58% 29.9 1012.3
04 12:54 SW 13 G 26 0.00 NULL NULL 60.1 43 53% 29.91 1012.8
04 11:54 SW 9 G 22 0.00 NULL NULL 59 43 56% 29.92 1013.1
04 10:54 SW 10 G 23 0.00 NULL NULL 60.1 41 50% 29.93 1013.4
04 09:54 SW 10 G 21 0.00 NULL NULL 57 43 60% 29.94 1013.6
04 08:54 SW 7 0.00 NULL NULL 57 39.9 53% 29.94 1013.7
04 07:54 SW 7 0.00 NULL NULL 54 39.9 54 50 59% 29.94 1013.9
04 06:54 SW 7 0.00 NULL NULL 51.1 39.9 66% 29.94 1013.9
04 05:54 SW 6 0.00 NULL NULL 50 36 59% 48 29.93 1013.5
04 04:54 SW 7 0.00 NULL NULL 51.1 37 59% 29.92 1013.2
04 03:54 SW 6 0.00 NULL NULL 50 39 66% 48 29.91 1012.9
Date Time (edt) Wind (mph) Vis. (mi.) Weather Sky Cond. Air Dwpt Max. Min. Relative Humidity Wind Chill (°F) Heat Index (°F) altimeter (in) sea level (mb) 1 hr 3 hr 6 hr
6 hour
Temperature (ºF) Pressure Precipitation (in)